createdAt,value
2019-06-07T00:00:40.340Z,9.97
2019-06-07T00:03:10.601Z,11.00
2019-06-07T00:05:37.460Z,11.20
2019-06-07T00:08:11.167Z,12.23
2019-06-07T00:10:36.985Z,12.53
2019-06-07T00:13:04.613Z,12.20
2019-06-07T00:15:32.328Z,12.53
2019-06-07T00:18:00.152Z,13.80
2019-06-07T00:20:27.809Z,12.50
2019-06-07T00:22:55.752Z,12.37
2019-06-07T00:25:24.563Z,11.87
2019-06-07T00:27:53.021Z,14.23
2019-06-07T00:30:40.102Z,14.37
2019-06-07T00:32:51.619Z,13.50
2019-06-07T00:35:21.039Z,13.43
2019-06-07T00:37:48.665Z,14.20
2019-06-07T00:40:25.349Z,13.60
2019-06-07T00:42:46.768Z,13.90
2019-06-07T00:45:19.000Z,13.63
2019-06-07T00:47:44.128Z,14.53
2019-06-07T00:50:13.765Z,12.93
2019-06-07T00:53:14.078Z,13.97
2019-06-07T00:55:15.251Z,13.00
2019-06-07T00:57:41.811Z,12.97
2019-06-07T01:00:12.181Z,11.50
2019-06-07T01:02:40.041Z,13.30
2019-06-07T01:05:08.668Z,13.63
2019-06-07T01:07:36.786Z,13.37
2019-06-07T01:10:04.835Z,13.10
2019-06-07T01:12:32.732Z,12.63
2019-06-07T01:15:00.774Z,12.60
2019-06-07T01:17:40.782Z,12.50
2019-06-07T01:19:59.044Z,15.27
2019-06-07T01:22:28.901Z,16.03
2019-06-07T01:24:56.267Z,17.07
2019-06-07T01:27:25.533Z,15.50
2019-06-07T01:29:53.492Z,15.43
2019-06-07T01:32:23.878Z,15.13
2019-06-07T01:34:52.210Z,16.30
2019-06-07T01:37:22.591Z,18.50
2019-06-07T01:39:49.767Z,17.07
2019-06-07T01:42:18.642Z,17.70
2019-06-07T01:44:47.376Z,14.97
2019-06-07T01:47:15.513Z,15.70
2019-06-07T01:49:44.233Z,16.60
2019-06-07T01:52:11.897Z,16.37
2019-06-07T01:54:55.932Z,15.80
2019-06-07T01:57:30.529Z,15.67
2019-06-07T01:59:57.667Z,16.07
2019-06-07T02:02:28.242Z,16.70
2019-06-07T02:04:55.249Z,17.00
2019-06-07T02:07:25.814Z,18.30
2019-06-07T02:09:52.975Z,17.13
2019-06-07T02:12:28.075Z,17.03
2019-06-07T02:14:51.181Z,16.17
2019-06-07T02:17:20.369Z,15.63
2019-06-07T02:19:48.298Z,16.43
2019-06-07T02:22:16.458Z,15.40
2019-06-07T02:24:45.163Z,15.37
2019-06-07T02:27:12.855Z,14.40
2019-06-07T02:29:40.407Z,14.57
2019-06-07T02:32:08.036Z,15.90
2019-06-07T02:34:39.233Z,15.13
2019-06-07T02:37:05.472Z,15.63
2019-06-07T02:39:38.093Z,15.00
2019-06-07T02:42:03.939Z,16.97
2019-06-07T02:44:37.867Z,16.77
2019-06-07T02:47:01.735Z,16.67
2019-06-07T02:49:36.234Z,16.00
2019-06-07T02:51:58.791Z,17.00
2019-06-07T02:54:27.450Z,16.90
2019-06-07T02:56:59.065Z,15.70
2019-06-07T02:59:52.692Z,15.50
2019-06-07T03:01:55.848Z,16.07
2019-06-07T03:04:27.197Z,14.00
2019-06-07T03:06:54.144Z,15.97
2019-06-07T03:09:21.683Z,16.77
2019-06-07T03:11:50.140Z,17.23
2019-06-07T03:14:19.535Z,16.63
2019-06-07T03:16:56.108Z,16.87
2019-06-07T03:19:41.991Z,17.27
2019-06-07T03:22:09.605Z,16.77
2019-06-07T03:24:42.028Z,16.83
2019-06-07T03:27:33.974Z,16.83
2019-06-07T03:29:41.204Z,17.43
2019-06-07T03:32:08.514Z,16.67
2019-06-07T03:34:41.296Z,17.33
2019-06-07T03:37:05.747Z,18.00
2019-06-07T03:39:34.316Z,17.33
2019-06-07T03:42:06.748Z,16.80
2019-06-07T03:44:37.774Z,18.07
2019-06-07T03:47:03.777Z,17.13
2019-06-07T03:49:38.741Z,17.70
2019-06-07T03:52:02.000Z,17.47
2019-06-07T03:54:29.748Z,19.30
2019-06-07T03:56:57.363Z,18.57
2019-06-07T03:59:25.482Z,18.87
2019-06-07T04:01:53.980Z,17.33
2019-06-07T04:04:21.612Z,16.90
2019-06-07T04:06:49.164Z,17.17
2019-06-07T04:09:16.784Z,16.93
2019-06-07T04:11:44.416Z,15.27
2019-06-07T04:14:12.134Z,16.07
2019-06-07T04:16:43.634Z,16.87
2019-06-07T04:19:10.027Z,17.03
2019-06-07T04:21:42.838Z,19.67
2019-06-07T04:24:09.404Z,21.80
2019-06-07T04:26:42.533Z,15.73
2019-06-07T04:29:32.580Z,14.83
2019-06-07T04:31:42.855Z,12.73
2019-06-07T04:34:09.879Z,11.33
2019-06-07T04:36:54.714Z,10.70
2019-06-07T04:39:07.806Z,9.20
2019-06-07T04:41:37.242Z,9.00
2019-06-07T04:44:05.479Z,8.53
2019-06-07T04:46:35.186Z,8.10
2019-06-07T04:49:04.001Z,8.07
2019-06-07T04:51:32.352Z,7.60
2019-06-07T04:54:01.551Z,8.40
2019-06-07T04:56:30.722Z,8.40
2019-06-07T04:58:59.317Z,7.90
2019-06-07T05:01:30.624Z,7.47
2019-06-07T05:03:57.557Z,7.57
2019-06-07T05:06:25.699Z,8.13
2019-06-07T05:08:53.484Z,8.87
2019-06-07T05:11:21.424Z,8.53
2019-06-07T05:13:49.086Z,8.90
2019-06-07T05:16:16.759Z,9.30
2019-06-07T05:18:44.160Z,9.10
2019-06-07T05:21:11.885Z,8.90
2019-06-07T05:24:05.278Z,8.30
2019-06-07T05:26:09.472Z,9.07
2019-06-07T05:28:42.325Z,9.00
2019-06-07T05:31:08.187Z,8.50
2019-06-07T05:33:38.104Z,8.57
2019-06-07T05:36:05.823Z,9.10
2019-06-07T05:38:33.624Z,9.30
2019-06-07T05:41:01.333Z,9.13
2019-06-07T05:43:35.116Z,8.73
2019-06-07T05:46:00.724Z,8.27
2019-06-07T05:48:29.118Z,8.50
2019-06-07T05:50:57.823Z,8.13
2019-06-07T05:53:26.519Z,8.27
2019-06-07T05:55:55.725Z,8.30
2019-06-07T05:58:24.524Z,7.60
2019-06-07T06:00:52.384Z,7.50
2019-06-07T06:03:20.748Z,7.10
2019-06-07T06:05:54.936Z,7.30
2019-06-07T06:08:18.233Z,8.17
2019-06-07T06:10:48.695Z,7.17
2019-06-07T06:13:15.563Z,7.33
2019-06-07T06:15:56.037Z,7.07
2019-06-07T06:18:13.168Z,7.20
2019-06-07T06:21:04.686Z,6.77
2019-06-07T06:23:10.263Z,6.93
2019-06-07T06:25:41.515Z,6.80
2019-06-07T06:28:12.255Z,6.83
2019-06-07T06:30:38.147Z,7.20
2019-06-07T06:33:06.007Z,6.87
2019-06-07T06:35:33.615Z,7.47
2019-06-07T06:38:01.373Z,6.67
2019-06-07T06:40:29.330Z,6.07
2019-06-07T06:42:57.375Z,5.87
2019-06-07T06:45:25.523Z,5.17
2019-06-07T06:47:53.364Z,5.20
2019-06-07T06:50:21.054Z,6.13
2019-06-07T06:52:53.615Z,5.70
2019-06-07T06:55:18.636Z,5.67
2019-06-07T06:57:48.359Z,6.43
2019-06-07T07:00:17.008Z,5.37
2019-06-07T07:03:32.592Z,5.43
2019-06-07T07:05:15.992Z,5.30
2019-06-07T07:07:45.418Z,5.50
2019-06-07T07:10:24.649Z,5.50
2019-06-07T07:12:52.554Z,5.60
2019-06-07T07:15:20.311Z,5.00
2019-06-07T07:18:02.603Z,4.73
2019-06-07T07:20:17.539Z,4.97
2019-06-07T07:22:47.884Z,5.00
2019-06-07T07:25:15.135Z,4.47
2019-06-07T07:27:42.683Z,5.10
2019-06-07T07:30:36.205Z,5.33
2019-06-07T07:32:45.563Z,4.90
2019-06-07T07:35:12.514Z,4.90
2019-06-07T07:37:40.176Z,4.93
2019-06-07T07:40:48.055Z,4.77
2019-06-07T07:42:37.922Z,4.70
2019-06-07T07:45:05.634Z,4.33
2019-06-07T07:47:34.525Z,5.43
2019-06-07T07:50:02.781Z,4.63
2019-06-07T07:52:30.328Z,4.90
2019-06-07T07:55:00.443Z,4.80
2019-06-07T07:57:29.352Z,4.57
2019-06-07T08:00:36.141Z,4.70
2019-06-07T08:02:28.049Z,4.30
2019-06-07T08:07:25.292Z,3.80
2019-06-07T08:09:59.560Z,3.80
2019-06-07T08:12:22.634Z,3.90
2019-06-07T08:14:53.524Z,4.10
2019-06-07T08:17:20.651Z,4.50
2019-06-07T08:19:49.945Z,4.60
2019-06-07T08:22:18.127Z,4.50
2019-06-07T08:24:50.028Z,3.70
2019-06-07T08:27:25.803Z,4.00
2019-06-07T08:30:03.638Z,3.77
2019-06-07T08:32:15.442Z,4.90
2019-06-07T08:34:43.165Z,3.97
2019-06-07T08:37:10.791Z,4.40
2019-06-07T08:39:39.591Z,3.83
2019-06-07T08:42:17.543Z,3.53
2019-06-07T08:44:37.500Z,3.40
2019-06-07T08:47:19.949Z,3.40
2019-06-07T08:49:35.139Z,2.80
2019-06-07T08:52:07.935Z,2.80
2019-06-07T08:54:32.521Z,3.30
2019-06-07T08:57:19.395Z,3.20
2019-06-07T08:59:30.911Z,3.13
2019-06-07T09:02:03.288Z,3.50
2019-06-07T09:04:28.709Z,3.10
2019-06-07T09:07:14.685Z,3.33
2019-06-07T09:09:26.109Z,3.47
2019-06-07T09:11:54.703Z,3.30
2019-06-07T09:14:23.599Z,3.00
2019-06-07T09:16:51.704Z,2.90
2019-06-07T09:19:20.118Z,3.13
2019-06-07T09:21:48.591Z,3.10
2019-06-07T09:24:16.151Z,2.67
2019-06-07T09:26:43.766Z,3.00
2019-06-07T09:29:12.257Z,3.07
2019-06-07T09:31:52.153Z,3.47
2019-06-07T09:34:13.897Z,3.27
2019-06-07T09:36:39.771Z,4.60
2019-06-07T09:39:12.106Z,5.37
2019-06-07T09:41:47.790Z,2.93
2019-06-07T09:44:23.256Z,2.60
2019-06-07T09:46:36.434Z,2.60
2019-06-07T09:49:24.161Z,3.13
2019-06-07T09:51:33.907Z,3.30
2019-06-07T09:54:06.891Z,2.73
2019-06-07T09:56:31.627Z,2.73
2019-06-07T09:59:02.602Z,3.00
2019-06-07T10:01:29.247Z,3.00
2019-06-07T10:04:02.354Z,2.83
2019-06-07T10:06:26.352Z,3.17
2019-06-07T10:10:04.765Z,2.87
2019-06-07T10:11:24.359Z,2.80
2019-06-07T10:13:52.441Z,3.03
2019-06-07T10:16:20.370Z,3.40
2019-06-07T10:18:48.098Z,3.07
2019-06-07T10:21:16.099Z,3.40
2019-06-07T10:23:43.803Z,4.07
2019-06-07T10:26:11.372Z,3.50
2019-06-07T10:28:39.244Z,3.37
2019-06-07T10:31:07.785Z,3.53
2019-06-07T10:33:36.726Z,3.50
2019-06-07T10:36:04.803Z,3.20
2019-06-07T10:38:32.554Z,3.30
2019-06-07T10:41:00.797Z,3.03
2019-06-07T10:43:28.953Z,3.43
2019-06-07T10:45:56.778Z,3.13
2019-06-07T10:48:25.227Z,3.43
2019-06-07T10:50:53.127Z,3.50
2019-06-07T10:53:20.763Z,3.33
2019-06-07T10:55:48.960Z,3.70
2019-06-07T10:58:17.041Z,3.20
2019-06-07T11:00:46.363Z,3.30
2019-06-07T11:03:14.947Z,3.30
2019-06-07T11:05:43.439Z,3.23
2019-06-07T11:08:13.150Z,3.50
2019-06-07T11:10:40.959Z,3.13
2019-06-07T11:13:08.514Z,3.40
2019-06-07T11:15:36.156Z,3.30
2019-06-07T11:18:03.814Z,3.40
2019-06-07T11:20:31.554Z,3.83
2019-06-07T11:22:59.601Z,3.63
2019-06-07T11:25:27.196Z,3.67
2019-06-07T11:27:56.667Z,4.43
2019-06-07T11:30:26.539Z,4.20
2019-06-07T11:32:54.453Z,4.23
2019-06-07T11:35:21.951Z,4.03
2019-06-07T11:37:49.458Z,3.60
2019-06-07T11:40:30.792Z,3.37
2019-06-07T11:42:47.353Z,3.80
2019-06-07T11:45:15.609Z,4.20
2019-06-07T11:47:43.195Z,4.50
2019-06-07T11:50:11.769Z,3.90
2019-06-07T11:52:40.421Z,4.20
2019-06-07T11:55:08.991Z,3.70
2019-06-07T11:57:37.759Z,3.80
2019-06-07T12:00:07.368Z,3.73
2019-06-07T12:02:35.067Z,4.30
2019-06-07T12:05:04.925Z,3.87
2019-06-07T12:07:32.855Z,3.87
2019-06-07T12:10:00.378Z,3.70
2019-06-07T12:12:28.251Z,3.90
2019-06-07T12:14:56.027Z,4.30
2019-06-07T12:17:23.991Z,4.13
2019-06-07T12:19:52.476Z,4.00
2019-06-07T12:22:20.172Z,4.30
2019-06-07T12:24:48.525Z,4.33
2019-06-07T12:27:16.732Z,4.00
2019-06-07T12:29:44.347Z,4.00
2019-06-07T12:32:13.235Z,3.90
2019-06-07T12:34:41.548Z,4.00
2019-06-07T12:37:09.411Z,4.30
2019-06-07T12:39:40.766Z,4.30
2019-06-07T12:42:08.338Z,4.10
2019-06-07T12:44:36.291Z,4.47
2019-06-07T12:47:04.223Z,4.20
2019-06-07T12:49:32.459Z,4.03
2019-06-07T12:52:01.464Z,4.47
2019-06-07T12:54:29.321Z,4.10
2019-06-07T12:56:57.084Z,4.20
2019-06-07T12:59:24.701Z,4.10
2019-06-07T13:01:52.444Z,3.57
2019-06-07T13:04:20.538Z,3.90
2019-06-07T13:06:48.542Z,4.27
2019-06-07T13:09:17.678Z,4.03
2019-06-07T13:11:46.908Z,4.10
2019-06-07T13:14:16.055Z,3.70
2019-06-07T13:16:43.651Z,3.70
2019-06-07T13:19:11.460Z,4.10
2019-06-07T13:21:39.542Z,4.10
2019-06-07T13:24:07.119Z,4.07
2019-06-07T13:26:35.051Z,4.10
2019-06-07T13:29:02.950Z,3.50
2019-06-07T13:31:30.608Z,3.90
2019-06-07T13:33:58.097Z,4.33
2019-06-07T13:36:26.183Z,3.83
2019-06-07T13:38:54.343Z,3.60
2019-06-07T13:41:37.996Z,3.90
2019-06-07T13:43:52.259Z,3.70
2019-06-07T13:46:20.952Z,3.93
2019-06-07T13:48:49.370Z,3.90
2019-06-07T13:51:19.116Z,3.87
2019-06-07T13:53:46.878Z,3.97
2019-06-07T13:56:14.723Z,5.20
2019-06-07T13:58:43.427Z,3.70
2019-06-07T14:01:11.491Z,3.70
2019-06-07T14:03:39.095Z,3.80
2019-06-07T14:06:06.873Z,3.60
2019-06-07T14:08:34.819Z,3.93
2019-06-07T14:11:02.569Z,4.03
2019-06-07T14:13:30.778Z,3.73
2019-06-07T14:15:58.848Z,3.70
2019-06-07T14:18:26.486Z,3.40
2019-06-07T14:20:54.976Z,4.50
2019-06-07T14:23:39.066Z,4.17
2019-06-07T14:25:52.626Z,3.73
2019-06-07T14:28:23.675Z,3.23
2019-06-07T14:30:50.149Z,3.40
2019-06-07T14:33:18.841Z,3.37
2019-06-07T14:35:46.507Z,3.47
2019-06-07T14:38:14.489Z,3.40
2019-06-07T14:40:42.432Z,3.17
2019-06-07T14:43:10.341Z,3.20
2019-06-07T14:45:38.563Z,3.33
2019-06-07T14:48:06.339Z,3.23
2019-06-07T14:50:34.510Z,3.33
2019-06-07T14:53:02.422Z,3.27
2019-06-07T14:55:31.243Z,3.43
2019-06-07T14:57:58.987Z,3.23
2019-06-07T15:00:46.559Z,3.60
2019-06-07T15:03:14.112Z,3.30
2019-06-07T15:05:41.772Z,3.87
2019-06-07T15:08:09.963Z,3.40
2019-06-07T15:10:39.278Z,3.20
2019-06-07T15:13:07.971Z,3.40
2019-06-07T15:15:35.575Z,3.27
2019-06-07T15:18:03.640Z,3.13
2019-06-07T15:20:32.162Z,3.43
2019-06-07T15:23:00.041Z,3.33
2019-06-07T15:25:27.475Z,3.00
2019-06-07T15:27:55.778Z,3.00
2019-06-07T15:30:24.054Z,3.27
2019-06-07T15:32:52.535Z,3.10
2019-06-07T15:35:20.667Z,3.63
2019-06-07T15:37:50.335Z,3.73
2019-06-07T15:40:19.222Z,3.60
2019-06-07T15:42:52.811Z,2.83
2019-06-07T15:45:17.388Z,3.30
2019-06-07T15:47:45.215Z,3.90
2019-06-07T15:50:14.646Z,3.20
2019-06-07T15:52:43.292Z,3.23
2019-06-07T15:55:11.707Z,3.40
2019-06-07T15:57:39.964Z,3.20
2019-06-07T16:00:10.367Z,3.30
2019-06-07T16:02:39.733Z,3.20
2019-06-07T16:05:08.094Z,3.33
2019-06-07T16:07:36.231Z,3.67
2019-06-07T16:10:05.951Z,3.30
2019-06-07T16:12:34.568Z,3.40
2019-06-07T16:15:02.927Z,3.10
2019-06-07T16:17:30.668Z,3.87
2019-06-07T16:19:59.164Z,3.40
2019-06-07T16:22:27.060Z,3.80
2019-06-07T16:24:54.639Z,3.40
2019-06-07T16:27:22.281Z,3.23
2019-06-07T16:29:50.236Z,4.23
2019-06-07T16:32:18.085Z,4.37
2019-06-07T16:34:46.240Z,4.10
2019-06-07T16:37:14.022Z,4.27
2019-06-07T16:39:42.311Z,3.97
2019-06-07T16:42:09.930Z,5.07
2019-06-07T16:44:38.779Z,4.30
2019-06-07T16:47:07.608Z,4.63
2019-06-07T16:49:36.751Z,4.60
2019-06-07T16:52:05.643Z,8.77
2019-06-07T16:54:35.592Z,8.63
2019-06-07T16:57:03.402Z,4.77
2019-06-07T16:59:31.491Z,4.90
2019-06-07T17:02:00.073Z,4.17
2019-06-07T17:04:27.931Z,4.07
2019-06-07T17:06:56.148Z,3.83
2019-06-07T17:09:24.035Z,3.17
2019-06-07T17:11:51.919Z,3.20
2019-06-07T17:14:20.478Z,2.80
2019-06-07T17:16:50.128Z,3.23
2019-06-07T17:19:18.239Z,3.37
2019-06-07T17:21:47.394Z,2.67
2019-06-07T17:24:16.303Z,2.50
2019-06-07T17:26:45.439Z,2.50
2019-06-07T17:29:13.969Z,2.30
2019-06-07T17:31:42.175Z,2.20
2019-06-07T17:34:09.851Z,2.27
2019-06-07T17:36:37.917Z,1.90
2019-06-07T17:39:07.144Z,1.80
2019-06-07T17:41:50.625Z,2.00
2019-06-07T17:44:04.891Z,1.70
2019-06-07T17:46:32.647Z,1.30
2019-06-07T17:49:01.702Z,1.90
2019-06-07T17:51:29.531Z,1.43
2019-06-07T17:53:57.403Z,1.40
2019-06-07T17:56:25.375Z,1.20
2019-06-07T17:58:53.106Z,1.30
2019-06-07T18:01:21.179Z,1.30
2019-06-07T18:03:49.190Z,1.70
2019-06-07T18:06:18.219Z,1.20
2019-06-07T18:08:47.510Z,1.20
2019-06-07T18:11:19.784Z,1.10
2019-06-07T18:13:48.262Z,1.13
2019-06-07T18:16:16.628Z,1.20
2019-06-07T18:18:44.493Z,1.07
2019-06-07T18:21:13.090Z,1.10
2019-06-07T18:23:40.864Z,1.10
2019-06-07T18:26:08.440Z,1.00
2019-06-07T18:28:36.580Z,0.90
2019-06-07T18:31:04.303Z,1.20
2019-06-07T18:33:32.022Z,1.00
2019-06-07T18:35:59.891Z,0.90
2019-06-07T18:38:27.843Z,1.03
2019-06-07T18:40:56.119Z,0.80
2019-06-07T18:46:27.749Z,0.80
2019-06-07T18:48:55.632Z,0.77
2019-06-07T18:51:24.871Z,1.10
2019-06-07T18:53:53.684Z,0.77
2019-06-07T18:56:21.639Z,0.70
2019-06-07T18:58:49.361Z,0.60
2019-06-07T19:01:17.087Z,0.60
2019-06-07T19:03:47.020Z,0.90
2019-06-07T19:06:14.506Z,0.70
2019-06-07T19:08:42.547Z,0.73
2019-06-07T19:11:10.769Z,0.77
2019-06-07T19:13:39.274Z,0.70
2019-06-07T19:16:07.095Z,0.60
2019-06-07T19:18:34.786Z,0.70
2019-06-07T19:21:02.334Z,1.00
2019-06-07T19:23:30.508Z,0.70
2019-06-07T19:25:58.584Z,0.80
2019-06-07T19:28:26.359Z,0.50
2019-06-07T19:30:54.989Z,0.63
2019-06-07T19:33:23.567Z,0.60
2019-06-07T19:35:51.449Z,0.60
2019-06-07T19:38:19.294Z,0.70
2019-06-07T19:40:47.264Z,0.70
2019-06-07T19:43:15.008Z,0.50
2019-06-07T19:45:42.664Z,0.93
2019-06-07T19:48:10.857Z,0.70
2019-06-07T19:50:38.739Z,0.63
2019-06-07T19:53:06.488Z,0.70
2019-06-07T19:55:34.269Z,0.60
2019-06-07T19:58:03.772Z,0.60
2019-06-07T20:00:31.622Z,0.80
2019-06-07T20:03:00.009Z,1.00
2019-06-07T20:05:27.761Z,0.53
2019-06-07T20:07:56.487Z,0.80
2019-06-07T20:10:24.291Z,0.70
2019-06-07T20:12:52.493Z,0.70
2019-06-07T20:15:28.373Z,0.80
2019-06-07T20:17:50.439Z,0.67
2019-06-07T20:20:18.164Z,0.70
2019-06-07T20:22:46.159Z,0.80
2019-06-07T20:25:15.966Z,0.63
2019-06-07T20:27:43.979Z,0.67
2019-06-07T20:30:12.157Z,0.70
2019-06-07T20:32:39.865Z,0.70
2019-06-07T20:35:10.689Z,0.63
2019-06-07T20:37:38.935Z,0.60
2019-06-07T20:40:22.828Z,0.70
2019-06-07T20:42:37.720Z,0.80
2019-06-07T20:45:08.138Z,0.70
2019-06-07T20:47:37.515Z,0.67
2019-06-07T20:50:06.292Z,0.90
2019-06-07T20:52:34.361Z,0.60
2019-06-07T20:55:03.087Z,0.80
2019-06-07T20:57:31.842Z,0.70
2019-06-07T21:00:02.421Z,0.97
2019-06-07T21:02:29.471Z,0.80
2019-06-07T21:04:57.532Z,0.70
2019-06-07T21:07:25.492Z,0.90
2019-06-07T21:09:53.155Z,0.87
2019-06-07T21:12:20.776Z,0.97
2019-06-07T21:14:48.320Z,0.70
2019-06-07T21:17:15.931Z,1.00
2019-06-07T21:19:43.727Z,1.20
2019-06-07T21:22:11.789Z,1.10
2019-06-07T21:24:39.690Z,0.80
2019-06-07T21:27:09.390Z,0.93
2019-06-07T21:29:37.889Z,0.90
2019-06-07T21:32:05.779Z,1.00
2019-06-07T21:34:34.458Z,0.90
2019-06-07T21:37:03.646Z,0.70
2019-06-07T21:39:31.929Z,0.90
2019-06-07T21:42:02.130Z,1.80
2019-06-07T21:44:30.192Z,1.20
2019-06-07T21:46:57.899Z,0.80
2019-06-07T21:49:25.883Z,0.77
2019-06-07T21:51:55.741Z,0.70
2019-06-07T21:54:23.742Z,0.80
2019-06-07T21:56:51.503Z,0.93
2019-06-07T21:59:19.944Z,0.70
2019-06-07T22:01:47.732Z,0.80
2019-06-07T22:04:15.547Z,0.80
2019-06-07T22:06:43.303Z,0.80
2019-06-07T22:09:12.419Z,0.80
2019-06-07T22:11:40.190Z,0.77
2019-06-07T22:14:08.534Z,1.10
2019-06-07T22:16:36.942Z,0.80
2019-06-07T22:19:06.403Z,1.03
2019-06-07T22:21:34.278Z,1.00
2019-06-07T22:24:02.598Z,0.90
2019-06-07T22:26:30.644Z,0.97
2019-06-07T22:28:58.215Z,1.00
2019-06-07T22:31:26.554Z,1.00
2019-06-07T22:33:54.235Z,1.03
2019-06-07T22:36:35.283Z,1.10
2019-06-07T22:39:04.230Z,1.10
2019-06-07T22:41:33.097Z,1.10
2019-06-07T22:44:01.073Z,0.93
2019-06-07T22:46:37.349Z,0.80
2019-06-07T22:48:58.443Z,1.00
2019-06-07T22:51:26.522Z,1.03
2019-06-07T22:53:54.229Z,0.90
2019-06-07T22:56:27.799Z,1.13
2019-06-07T22:58:55.782Z,0.93
2019-06-07T23:01:23.608Z,0.90
2019-06-07T23:03:51.174Z,1.03
2019-06-07T23:06:19.183Z,0.93
2019-06-07T23:08:47.111Z,0.80
2019-06-07T23:11:15.183Z,1.30
2019-06-07T23:13:43.681Z,1.23
2019-06-07T23:16:11.490Z,1.30
2019-06-07T23:18:39.155Z,1.20
2019-06-07T23:21:07.132Z,0.80
2019-06-07T23:23:35.019Z,0.97
2019-06-07T23:26:03.203Z,1.27
2019-06-07T23:28:31.014Z,1.00
2019-06-07T23:30:58.688Z,1.07
2019-06-07T23:33:26.075Z,1.67
2019-06-07T23:35:53.728Z,1.00
2019-06-07T23:38:22.085Z,1.00
2019-06-07T23:40:50.021Z,1.47
2019-06-07T23:43:19.618Z,1.00
2019-06-07T23:45:47.664Z,1.00
2019-06-07T23:48:15.414Z,1.20
2019-06-07T23:50:43.283Z,0.90
2019-06-07T23:53:11.676Z,1.00
2019-06-07T23:55:40.050Z,1.10
2019-06-07T23:58:07.700Z,1.00
